Time;durP1;ratioP1;P1;durP2;ratioP2;P2;SDS_P1;SDS_P2;PMS_P1;PMS_P2;Temp;Humidity;BMP_temperature;BMP_pressure;BME280_temperature;BME280_humidity;BME280_pressure;Samples;Min_cycle;Max_cycle;Signal;HPM_P1;HPM_P2
2023/09/16 00:01:08;;;;;;;2.30;1.30;;;15.60;99.90;;;;;;4983482;28;20044;-73
2023/09/16 00:03:35;;;;;;;2.45;1.48;;;15.60;99.90;;;;;;5014159;28;20038;-72
2023/09/16 00:06:04;;;;;;;2.60;1.33;;;15.50;99.90;;;;;;4985902;28;20040;-71
2023/09/16 00:08:33;;;;;;;2.30;0.98;;;15.50;99.90;;;;;;5000925;28;20029;-72
2023/09/16 00:11:00;;;;;;;2.30;1.23;;;15.50;99.90;;;;;;5017168;28;20041;-71
2023/09/16 00:13:27;;;;;;;3.20;1.55;;;15.60;99.90;;;;;;5014930;28;20456;-71
2023/09/16 00:15:54;;;;;;;2.78;1.50;;;15.50;99.90;;;;;;4999688;28;20434;-71
2023/09/16 00:18:20;;;;;;;1.88;1.23;;;15.50;99.90;;;;;;5012257;28;20037;-72
2023/09/16 00:20:50;;;;;;;2.85;1.63;;;15.50;99.90;;;;;;4998924;28;20041;-72
2023/09/16 00:23:16;;;;;;;2.42;1.20;;;15.50;99.90;;;;;;5005895;28;20388;-72
2023/09/16 00:25:43;;;;;;;2.55;1.63;;;15.50;99.90;;;;;;5013963;28;20022;-72
2023/09/16 00:28:09;;;;;;;1.75;1.17;;;15.50;99.90;;;;;;5015253;28;20057;-72
2023/09/16 00:30:36;;;;;;;3.30;1.70;;;15.50;99.90;;;;;;4981621;28;20038;-72
2023/09/16 00:33:05;;;;;;;2.75;1.30;;;15.50;99.90;;;;;;5009662;28;20040;-71
2023/09/16 00:35:32;;;;;;;2.47;1.70;;;15.50;99.90;;;;;;4999019;28;20085;-72
2023/09/16 00:37:58;;;;;;;2.53;1.50;;;15.50;99.90;;;;;;5014770;28;20033;-71
2023/09/16 00:40:26;;;;;;;3.10;1.60;;;15.60;99.90;;;;;;5013462;28;20532;-72
2023/09/16 00:42:52;;;;;;;2.08;1.30;;;15.50;99.90;;;;;;4992863;28;20025;-72
2023/09/16 00:45:19;;;;;;;3.13;1.33;;;15.60;99.90;;;;;;4999871;28;20036;-72
2023/09/16 00:47:45;;;;;;;2.58;1.50;;;15.60;99.90;;;;;;5000454;28;20387;-71
2023/09/16 00:50:13;;;;;;;2.38;1.58;;;15.60;99.90;;;;;;4983269;28;20044;-72
2023/09/16 00:52:46;;;;;;;2.10;1.58;;;15.60;99.90;;;;;;4996296;28;20412;-71
2023/09/16 00:55:13;;;;;;;2.20;1.60;;;15.60;99.90;;;;;;5014962;28;20972;-71
2023/09/16 00:57:42;;;;;;;2.42;1.42;;;15.60;99.90;;;;;;4982971;28;20037;-71
2023/09/16 01:00:10;;;;;;;2.60;1.60;;;15.70;99.90;;;;;;5014194;28;20060;-71
2023/09/16 01:02:37;;;;;;;2.22;1.30;;;15.70;99.90;;;;;;4999871;28;20041;-72
2023/09/16 01:05:05;;;;;;;3.08;1.60;;;15.70;99.90;;;;;;5016704;28;20503;-72
2023/09/16 01:07:32;;;;;;;2.00;1.42;;;15.80;99.90;;;;;;5015734;28;20064;-72
2023/09/16 01:09:59;;;;;;;3.28;2.00;;;15.80;99.90;;;;;;5014741;28;20441;-73
2023/09/16 01:12:25;;;;;;;1.88;1.50;;;15.70;99.90;;;;;;4996216;28;20045;-72
2023/09/16 01:14:52;;;;;;;2.80;2.00;;;15.70;99.90;;;;;;4990794;28;20042;-71
2023/09/16 01:17:25;;;;;;;2.53;1.90;;;15.80;99.90;;;;;;4998412;28;20038;-73
2023/09/16 01:20:15;;;;;;;2.42;1.98;;;15.80;99.90;;;;;;4999914;28;20037;-72
2023/09/16 01:22:45;;;;;;;4.75;2.25;;;15.70;99.90;;;;;;4998488;28;20040;-73
2023/09/16 01:25:14;;;;;;;2.30;1.75;;;15.70;99.90;;;;;;4999230;28;20528;-72
2023/09/16 01:27:42;;;;;;;3.15;2.38;;;15.70;99.90;;;;;;4999783;28;20033;-72
2023/09/16 01:30:09;;;;;;;2.67;2.05;;;15.70;99.90;;;;;;5015656;28;20052;-72
2023/09/16 01:32:48;;;;;;;3.10;2.03;;;15.70;99.90;;;;;;5029034;28;20042;-71
2023/09/16 01:35:18;;;;;;;3.03;2.17;;;15.70;99.90;;;;;;4983093;28;20481;-71
2023/09/16 01:37:47;;;;;;;3.03;2.72;;;15.60;99.90;;;;;;4996567;28;20034;-72
2023/09/16 01:40:15;;;;;;;3.40;2.45;;;15.60;99.90;;;;;;5014838;28;20471;-72
2023/09/16 01:42:42;;;;;;;3.08;2.25;;;15.60;99.90;;;;;;5015816;28;20037;-71
2023/09/16 01:45:12;;;;;;;5.75;3.20;;;15.60;99.90;;;;;;5014941;28;20521;-72
2023/09/16 01:47:38;;;;;;;2.92;2.13;;;15.60;99.90;;;;;;5013594;28;20038;-72
2023/09/16 01:50:05;;;;;;;2.95;2.33;;;15.50;99.90;;;;;;5015460;28;20037;-72
2023/09/16 01:52:32;;;;;;;4.53;2.38;;;15.50;99.90;;;;;;5016085;28;20045;-72
2023/09/16 01:54:58;;;;;;;3.17;2.25;;;15.50;99.90;;;;;;4996097;28;20083;-71
2023/09/16 01:57:25;;;;;;;4.35;2.75;;;15.40;99.90;;;;;;4994421;28;20038;-71
2023/09/16 01:59:51;;;;;;;2.75;1.90;;;15.40;99.90;;;;;;4995977;28;20052;-73
2023/09/16 02:02:18;;;;;;;3.10;2.80;;;15.30;99.90;;;;;;4998923;28;20032;-72
2023/09/16 02:04:45;;;;;;;3.40;2.60;;;15.30;99.90;;;;;;4998566;28;20037;-71
2023/09/16 02:07:12;;;;;;;4.70;3.40;;;15.30;99.90;;;;;;4998185;28;20040;-72
2023/09/16 02:09:42;;;;;;;3.67;2.80;;;15.30;99.90;;;;;;5013475;28;20033;-72
2023/09/16 02:12:09;;;;;;;3.90;3.10;;;15.20;99.90;;;;;;5007722;28;20101;-72
2023/09/16 02:14:41;;;;;;;3.65;2.70;;;15.20;99.90;;;;;;5017532;28;20033;-72
2023/09/16 02:17:08;;;;;;;4.57;2.92;;;15.20;99.90;;;;;;5018197;28;20041;-71
2023/09/16 02:19:34;;;;;;;3.60;2.42;;;15.20;99.90;;;;;;5000200;28;20036;-71
2023/09/16 02:22:01;;;;;;;3.58;2.65;;;15.10;99.90;;;;;;5001970;28;20483;-72
2023/09/16 02:24:28;;;;;;;3.60;2.90;;;15.10;99.90;;;;;;5017459;28;20036;-72
2023/09/16 02:26:54;;;;;;;3.83;2.72;;;15.10;99.90;;;;;;4999001;28;20044;-71
2023/09/16 02:29:20;;;;;;;4.47;3.50;;;15.10;99.90;;;;;;5017435;28;20060;-71
2023/09/16 02:31:48;;;;;;;2.95;2.33;;;15.10;99.90;;;;;;5016244;28;20048;-72
2023/09/16 02:34:15;;;;;;;2.88;2.30;;;15.00;99.90;;;;;;5016542;28;20040;-72
2023/09/16 02:36:42;;;;;;;3.72;2.58;;;15.00;99.90;;;;;;5001425;28;20040;-71
2023/09/16 02:39:09;;;;;;;3.70;2.63;;;15.10;99.90;;;;;;5000765;28;20040;-71
2023/09/16 02:41:36;;;;;;;4.43;2.83;;;15.00;99.90;;;;;;5000997;28;20285;-72
2023/09/16 02:44:02;;;;;;;4.78;3.17;;;15.00;99.90;;;;;;5000117;28;20056;-71
2023/09/16 02:46:28;;;;;;;3.50;2.88;;;15.00;99.90;;;;;;5017285;28;20041;-71
2023/09/16 02:48:55;;;;;;;4.97;2.97;;;14.90;99.90;;;;;;5001612;28;20033;-72
2023/09/16 02:51:21;;;;;;;3.58;2.97;;;14.90;99.90;;;;;;4986992;28;20040;-71
2023/09/16 02:53:48;;;;;;;4.22;3.42;;;14.90;99.90;;;;;;5019489;28;20357;-72
2023/09/16 02:56:14;;;;;;;3.78;2.83;;;14.90;99.90;;;;;;5026237;28;20379;-71
2023/09/16 02:58:42;;;;;;;4.18;2.38;;;14.80;99.90;;;;;;5017666;28;20041;-71
2023/09/16 03:01:10;;;;;;;4.93;2.92;;;14.80;99.90;;;;;;5018373;28;20045;-72
2023/09/16 03:03:40;;;;;;;4.32;3.20;;;14.80;99.90;;;;;;5014712;28;20046;-71
2023/09/16 03:06:07;;;;;;;3.95;3.47;;;14.80;99.90;;;;;;4964876;28;20048;-71
2023/09/16 03:08:33;;;;;;;3.22;2.92;;;14.80;99.90;;;;;;4984619;28;20038;-71
2023/09/16 03:11:05;;;;;;;3.42;3.00;;;14.80;99.90;;;;;;5016566;28;20041;-72
2023/09/16 03:13:34;;;;;;;3.72;3.08;;;14.70;99.90;;;;;;5000619;28;20066;-71
2023/09/16 03:16:14;;;;;;;3.67;2.90;;;14.70;99.90;;;;;;5017202;28;20048;-71
2023/09/16 03:19:00;;;;;;;4.22;2.95;;;14.70;99.90;;;;;;5001894;28;20025;-72
2023/09/16 03:21:27;;;;;;;3.35;2.75;;;14.70;99.90;;;;;;4983517;28;20042;-71
2023/09/16 03:24:00;;;;;;;3.35;2.80;;;14.70;99.90;;;;;;4995388;28;20040;-71
2023/09/16 03:26:26;;;;;;;4.72;3.90;;;14.70;99.90;;;;;;4986065;28;20048;-72
2023/09/16 03:28:54;;;;;;;4.95;3.30;;;14.70;99.90;;;;;;5016645;28;20049;-72
2023/09/16 03:31:27;;;;;;;3.30;3.00;;;14.60;99.90;;;;;;5031522;28;20038;-72
2023/09/16 03:33:55;;;;;;;4.65;3.67;;;14.60;99.90;;;;;;4957146;28;20049;-72
2023/09/16 03:36:22;;;;;;;4.15;3.58;;;14.70;99.90;;;;;;5011509;28;20033;-71
2023/09/16 03:38:51;;;;;;;4.22;3.25;;;14.60;99.90;;;;;;5009553;28;20025;-71
2023/09/16 03:41:17;;;;;;;4.00;3.55;;;14.60;99.90;;;;;;5016291;28;20032;-71
2023/09/16 03:43:51;;;;;;;4.68;3.67;;;14.60;99.90;;;;;;5016148;28;20042;-72
2023/09/16 03:46:21;;;;;;;4.75;3.72;;;14.60;99.90;;;;;;4984032;28;20033;-71
2023/09/16 03:48:48;;;;;;;4.03;3.55;;;14.60;99.90;;;;;;5017374;28;20026;-73
2023/09/16 03:51:15;;;;;;;4.65;4.10;;;14.60;99.90;;;;;;4998509;28;20057;-72
2023/09/16 03:53:41;;;;;;;5.10;4.05;;;14.50;99.90;;;;;;4998199;28;20045;-71
2023/09/16 03:56:09;;;;;;;4.45;3.50;;;14.50;99.90;;;;;;4972412;28;20038;-71
2023/09/16 03:58:36;;;;;;;3.95;3.45;;;14.50;99.90;;;;;;5015288;28;20034;-72
2023/09/16 04:01:03;;;;;;;3.30;2.97;;;14.60;99.90;;;;;;4999206;28;20029;-71
2023/09/16 04:03:31;;;;;;;3.58;2.83;;;14.60;99.90;;;;;;4997721;28;20029;-72
2023/09/16 04:05:58;;;;;;;4.57;2.80;;;14.60;99.90;;;;;;5015587;28;20037;-73
2023/09/16 04:08:26;;;;;;;3.85;3.10;;;14.60;99.90;;;;;;4981649;28;21295;-71
2023/09/16 04:10:53;;;;;;;4.72;3.42;;;14.60;99.90;;;;;;4974341;28;20041;-72
2023/09/16 04:13:21;;;;;;;4.10;3.38;;;14.60;99.90;;;;;;5012774;28;20388;-71
2023/09/16 04:15:49;;;;;;;3.35;2.72;;;14.60;99.90;;;;;;4999447;28;20301;-72
2023/09/16 04:18:15;;;;;;;3.90;3.47;;;14.60;99.90;;;;;;5009321;28;20389;-72
2023/09/16 04:20:43;;;;;;;4.32;3.20;;;14.60;99.90;;;;;;4985910;28;20069;-71
2023/09/16 04:23:09;;;;;;;4.13;3.28;;;14.60;99.90;;;;;;5014630;28;20034;-72
2023/09/16 04:25:36;;;;;;;6.22;3.50;;;14.50;99.90;;;;;;5014201;28;20026;-72
2023/09/16 04:28:03;;;;;;;3.50;3.05;;;14.50;99.90;;;;;;4974615;28;20048;-72
2023/09/16 04:30:30;;;;;;;4.68;3.65;;;14.50;99.90;;;;;;5016174;28;22754;-72
2023/09/16 04:32:57;;;;;;;3.40;2.60;;;14.50;99.90;;;;;;5014362;28;20061;-72
2023/09/16 04:35:25;;;;;;;3.60;2.90;;;14.40;99.90;;;;;;4999134;28;20040;-71
2023/09/16 04:37:52;;;;;;;4.40;3.25;;;14.40;99.90;;;;;;4999776;28;20042;-72
2023/09/16 04:40:20;;;;;;;6.22;4.38;;;14.40;99.90;;;;;;4999404;28;20373;-72
2023/09/16 04:42:47;;;;;;;5.35;4.70;;;14.40;99.90;;;;;;4997938;28;20033;-73
2023/09/16 04:45:14;;;;;;;5.88;5.18;;;14.40;99.90;;;;;;5013143;28;20040;-71
2023/09/16 04:47:41;;;;;;;5.55;4.90;;;14.40;99.90;;;;;;4954439;28;20030;-72
2023/09/16 04:50:08;;;;;;;4.97;4.00;;;14.40;99.90;;;;;;4961654;28;20030;-71
2023/09/16 04:52:36;;;;;;;5.68;4.20;;;14.40;99.90;;;;;;5009904;28;20030;-71
2023/09/16 04:55:04;;;;;;;6.35;5.70;;;14.40;99.90;;;;;;4972038;28;20041;-72
2023/09/16 04:57:34;;;;;;;6.00;4.82;;;14.40;99.90;;;;;;5013514;28;20801;-71
2023/09/16 05:00:05;;;;;;;5.25;4.43;;;14.40;99.90;;;;;;5015616;28;20025;-72
2023/09/16 05:02:33;;;;;;;5.22;4.72;;;14.40;99.90;;;;;;5014660;28;20547;-71
2023/09/16 05:05:01;;;;;;;5.30;4.60;;;14.40;99.90;;;;;;4995871;28;20060;-72
2023/09/16 05:07:28;;;;;;;4.47;4.07;;;14.40;99.90;;;;;;5014534;28;20029;-71
2023/09/16 05:09:56;;;;;;;4.30;3.90;;;14.40;99.90;;;;;;4998797;28;20037;-72
2023/09/16 05:12:23;;;;;;;4.55;4.07;;;14.40;99.90;;;;;;4982321;28;20038;-71
2023/09/16 05:14:50;;;;;;;4.60;4.15;;;14.40;99.90;;;;;;5014134;28;20029;-72
2023/09/16 05:17:18;;;;;;;5.53;4.78;;;14.40;99.90;;;;;;5014192;28;20029;-72
2023/09/16 05:19:45;;;;;;;6.65;5.05;;;14.40;99.90;;;;;;5015032;28;20029;-72
2023/09/16 05:22:13;;;;;;;5.28;4.43;;;14.40;99.90;;;;;;4997530;28;20050;-72
2023/09/16 05:24:39;;;;;;;4.53;4.13;;;14.40;99.90;;;;;;4998742;28;20048;-72
2023/09/16 05:27:05;;;;;;;4.88;4.32;;;14.40;99.90;;;;;;5014007;28;20420;-71
2023/09/16 05:29:33;;;;;;;5.80;4.32;;;14.40;99.90;;;;;;4999545;28;20044;-72
2023/09/16 05:31:59;;;;;;;6.13;4.80;;;14.40;99.90;;;;;;5014925;28;20535;-72
2023/09/16 05:34:26;;;;;;;5.53;4.68;;;14.40;99.90;;;;;;5013248;28;20029;-72
2023/09/16 05:36:52;;;;;;;5.50;4.57;;;14.40;99.90;;;;;;4983956;28;20391;-72
2023/09/16 05:39:19;;;;;;;5.72;4.88;;;14.40;99.90;;;;;;4998809;28;20384;-72
2023/09/16 05:41:47;;;;;;;6.38;5.40;;;14.40;99.90;;;;;;5013641;28;20041;-74
2023/09/16 05:44:14;;;;;;;7.20;5.97;;;14.40;99.90;;;;;;5015033;28;20038;-73
2023/09/16 05:46:40;;;;;;;9.07;6.70;;;14.50;99.90;;;;;;5016050;28;20038;-75
2023/09/16 05:49:08;;;;;;;8.30;7.07;;;14.50;99.90;;;;;;4996591;28;20048;-77
2023/09/16 05:51:36;;;;;;;7.65;6.80;;;14.50;99.90;;;;;;4997332;28;20033;-77
2023/09/16 05:54:03;;;;;;;8.65;7.68;;;14.60;99.90;;;;;;4996469;28;20040;-76
2023/09/16 05:56:30;;;;;;;7.90;7.05;;;14.60;99.90;;;;;;5012201;28;20037;-76
2023/09/16 05:58:56;;;;;;;7.18;6.45;;;14.70;99.90;;;;;;4980887;28;20048;-78
2023/09/16 06:01:24;;;;;;;7.85;6.85;;;14.70;99.90;;;;;;4996664;28;20034;-72
2023/09/16 06:03:51;;;;;;;6.72;5.50;;;14.70;99.90;;;;;;5010859;28;20384;-74
2023/09/16 06:06:19;;;;;;;5.57;5.00;;;14.80;99.90;;;;;;4982972;28;21013;-71
2023/09/16 06:08:46;;;;;;;4.70;4.25;;;14.80;99.90;;;;;;4996707;28;20030;-74
2023/09/16 06:11:13;;;;;;;6.40;4.65;;;14.90;99.90;;;;;;5013863;28;20034;-75
2023/09/16 06:13:39;;;;;;;5.75;5.25;;;14.90;99.90;;;;;;4996281;28;21553;-76
2023/09/16 06:16:07;;;;;;;6.68;5.97;;;14.90;99.90;;;;;;4981877;28;20042;-75
2023/09/16 06:18:35;;;;;;;6.75;5.70;;;15.00;99.90;;;;;;5015032;28;20875;-77
2023/09/16 06:21:02;;;;;;;9.75;7.40;;;15.10;99.90;;;;;;5028227;28;20041;-78
2023/09/16 06:23:29;;;;;;;7.57;6.28;;;15.20;99.90;;;;;;5009641;28;20052;-76
2023/09/16 06:25:56;;;;;;;9.18;6.55;;;15.40;99.90;;;;;;4953967;28;20405;-77
2023/09/16 06:28:26;;;;;;;5.72;5.22;;;15.50;99.90;;;;;;4990967;28;20052;-77
2023/09/16 06:30:53;;;;;;;5.63;4.95;;;15.50;99.90;;;;;;4953168;28;20029;-77
2023/09/16 06:33:19;;;;;;;5.18;4.00;;;15.60;99.90;;;;;;5011575;28;20061;-73
2023/09/16 06:35:46;;;;;;;4.70;4.18;;;15.60;99.90;;;;;;5014141;28;20038;-77
2023/09/16 06:38:12;;;;;;;4.35;3.42;;;15.60;99.90;;;;;;5014211;28;20041;-76
2023/09/16 06:40:39;;;;;;;4.18;3.38;;;15.70;99.90;;;;;;5014639;28;20053;-76
2023/09/16 06:43:06;;;;;;;4.30;3.90;;;15.70;99.90;;;;;;4980578;28;20044;-74
2023/09/16 06:45:38;;;;;;;4.50;3.97;;;15.80;99.90;;;;;;4995236;28;20400;-75
2023/09/16 06:48:05;;;;;;;4.05;3.65;;;16.00;99.90;;;;;;5014427;28;20045;-73
2023/09/16 06:50:31;;;;;;;5.40;4.57;;;16.20;99.90;;;;;;4988362;28;20034;-73
2023/09/16 06:52:57;;;;;;;3.90;3.55;;;16.30;99.90;;;;;;4976576;28;20488;-73
2023/09/16 06:55:24;;;;;;;7.35;4.15;;;16.50;99.90;;;;;;5008060;28;20034;-73
2023/09/16 06:57:50;;;;;;;4.28;3.75;;;16.70;99.90;;;;;;4999542;28;20045;-74
2023/09/16 07:00:17;;;;;;;4.80;4.20;;;16.80;99.90;;;;;;5030727;28;20037;-73
2023/09/16 07:02:43;;;;;;;5.88;3.97;;;17.00;99.90;;;;;;5013015;28;20495;-74
2023/09/16 07:05:10;;;;;;;4.90;3.63;;;17.20;99.90;;;;;;4995660;28;20049;-71
2023/09/16 07:07:37;;;;;;;4.82;3.67;;;17.40;99.90;;;;;;5000064;28;20045;-72
2023/09/16 07:10:04;;;;;;;4.45;3.47;;;17.50;99.90;;;;;;4998821;28;20037;-74
2023/09/16 07:12:31;;;;;;;5.80;4.35;;;17.70;99.90;;;;;;4998112;28;20033;-73
2023/09/16 07:14:57;;;;;;;4.63;3.72;;;17.80;99.90;;;;;;5015303;28;20046;-72
2023/09/16 07:17:24;;;;;;;3.90;3.17;;;18.00;99.90;;;;;;5016269;28;20021;-73
2023/09/16 07:19:50;;;;;;;3.97;3.58;;;18.10;99.90;;;;;;4997640;28;20041;-73
2023/09/16 07:22:18;;;;;;;3.22;2.90;;;18.30;99.90;;;;;;5013858;28;20029;-73
2023/09/16 07:24:44;;;;;;;4.47;3.55;;;18.40;99.90;;;;;;5014691;28;20018;-72
2023/09/16 07:27:11;;;;;;;4.25;3.38;;;18.50;99.90;;;;;;4999698;28;20038;-73
2023/09/16 07:29:38;;;;;;;4.25;3.63;;;18.60;99.90;;;;;;4999576;28;20057;-73
2023/09/16 07:32:04;;;;;;;3.83;3.40;;;18.80;99.90;;;;;;5014936;28;20519;-74
2023/09/16 07:34:31;;;;;;;4.93;4.18;;;18.90;99.90;;;;;;4983676;28;20072;-72
2023/09/16 07:36:58;;;;;;;3.88;3.55;;;19.00;99.90;;;;;;5014257;28;20044;-72
2023/09/16 07:39:25;;;;;;;3.78;3.40;;;19.00;99.90;;;;;;5015427;28;20033;-72
2023/09/16 07:41:51;;;;;;;4.95;3.78;;;19.20;99.90;;;;;;4998817;28;20037;-72
2023/09/16 07:44:18;;;;;;;3.72;3.30;;;19.30;99.90;;;;;;5014506;28;20493;-71
2023/09/16 07:46:45;;;;;;;3.20;2.90;;;19.40;99.90;;;;;;5000522;28;20061;-71
2023/09/16 07:49:12;;;;;;;4.05;3.65;;;19.60;99.90;;;;;;5015719;28;20025;-73
2023/09/16 07:51:40;;;;;;;5.45;4.95;;;19.60;99.90;;;;;;4999673;28;20389;-71
2023/09/16 07:54:07;;;;;;;4.65;3.85;;;19.70;99.90;;;;;;5019425;28;20586;-72
2023/09/16 07:56:34;;;;;;;3.67;3.20;;;19.90;99.90;;;;;;5018272;28;20494;-72
2023/09/16 07:59:00;;;;;;;3.22;2.85;;;20.00;99.90;;;;;;4998716;28;20040;-72
2023/09/16 08:01:29;;;;;;;4.97;2.58;;;20.20;99.90;;;;;;4998658;28;21067;-73
2023/09/16 08:03:55;;;;;;;2.92;2.63;;;20.20;99.90;;;;;;5016569;28;20025;-72
2023/09/16 08:06:23;;;;;;;4.47;3.22;;;20.20;99.90;;;;;;5015925;28;20021;-72
2023/09/16 08:08:49;;;;;;;3.97;3.42;;;20.30;99.90;;;;;;5016044;28;20030;-73
2023/09/16 08:11:17;;;;;;;3.05;2.30;;;20.40;99.90;;;;;;4996479;28;20357;-73
2023/09/16 08:13:43;;;;;;;3.45;2.60;;;20.70;99.90;;;;;;4983641;28;20523;-72
2023/09/16 08:16:11;;;;;;;3.88;2.90;;;20.90;99.90;;;;;;4983275;28;20030;-73
2023/09/16 08:18:37;;;;;;;3.20;2.90;;;21.20;99.90;;;;;;4983233;28;20531;-73
2023/09/16 08:21:04;;;;;;;5.15;3.85;;;21.30;99.90;;;;;;5014093;28;20030;-72
2023/09/16 08:23:30;;;;;;;4.28;3.33;;;21.60;99.90;;;;;;4998944;28;20029;-73
2023/09/16 08:25:57;;;;;;;3.75;3.33;;;21.80;99.90;;;;;;4974818;28;20037;-73
2023/09/16 08:28:23;;;;;;;3.85;3.40;;;21.90;99.90;;;;;;4991707;28;20030;-74
2023/09/16 08:30:50;;;;;;;3.53;3.00;;;21.90;99.90;;;;;;5014598;28;20026;-73
2023/09/16 08:33:18;;;;;;;4.03;2.65;;;21.90;99.90;;;;;;4999870;28;20502;-74
2023/09/16 08:35:45;;;;;;;5.40;3.20;;;22.10;99.90;;;;;;4998842;28;20025;-73
2023/09/16 08:38:11;;;;;;;4.30;3.90;;;22.30;99.90;;;;;;4999983;28;20037;-73
2023/09/16 08:40:38;;;;;;;3.15;2.85;;;22.50;99.90;;;;;;4997928;28;20056;-72
2023/09/16 08:43:15;;;;;;;3.95;3.45;;;22.80;99.90;;;;;;4970657;28;20384;-74
2023/09/16 08:45:49;;;;;;;3.58;2.88;;;23.00;99.90;;;;;;5015598;28;20034;-73
2023/09/16 08:48:21;;;;;;;4.38;3.80;;;23.10;99.90;;;;;;4996690;28;20036;-74
2023/09/16 08:50:51;;;;;;;3.13;2.47;;;23.10;99.90;;;;;;4951592;28;20038;-75
2023/09/16 08:53:19;;;;;;;4.70;2.90;;;23.20;99.90;;;;;;5002964;28;20052;-73
2023/09/16 08:55:46;;;;;;;3.17;2.42;;;23.20;99.90;;;;;;5011559;28;20025;-73
2023/09/16 08:58:14;;;;;;;3.75;2.63;;;23.20;99.90;;;;;;5011038;28;20052;-73
2023/09/16 09:00:40;;;;;;;3.83;2.38;;;23.20;99.90;;;;;;5012569;28;20048;-73
2023/09/16 09:03:07;;;;;;;3.95;2.75;;;23.30;99.90;;;;;;4992934;28;20600;-73
2023/09/16 09:05:35;;;;;;;2.75;1.95;;;23.30;99.90;;;;;;5009747;28;20032;-73
2023/09/16 09:08:03;;;;;;;2.13;1.92;;;23.40;99.90;;;;;;4968777;28;20482;-72
2023/09/16 09:10:29;;;;;;;2.35;1.92;;;23.50;99.90;;;;;;4980581;28;20403;-73
2023/09/16 09:12:58;;;;;;;3.63;2.38;;;23.60;99.90;;;;;;5016821;28;20040;-74
2023/09/16 09:15:25;;;;;;;3.15;2.47;;;23.70;99.90;;;;;;5013806;28;20036;-72
2023/09/16 09:17:55;;;;;;;3.33;2.50;;;23.70;99.90;;;;;;5012384;28;20026;-73
2023/09/16 09:20:24;;;;;;;3.00;1.85;;;23.90;99.90;;;;;;5011668;28;20573;-73
2023/09/16 09:22:52;;;;;;;3.83;2.50;;;24.00;99.90;;;;;;4997705;28;20017;-72
2023/09/16 09:25:23;;;;;;;2.50;1.77;;;24.10;99.90;;;;;;4998460;28;20409;-73
2023/09/16 09:27:51;;;;;;;3.20;1.93;;;24.10;99.90;;;;;;4999709;28;20037;-73
2023/09/16 09:30:28;;;;;;;3.22;2.05;;;24.20;99.90;;;;;;4997084;28;20022;-75
2023/09/16 09:32:55;;;;;;;3.15;2.50;;;24.30;99.90;;;;;;4997342;28;20113;-74
2023/09/16 09:35:27;;;;;;;3.28;1.83;;;24.40;99.90;;;;;;4997657;28;20034;-73
2023/09/16 09:37:54;;;;;;;2.65;2.03;;;24.40;99.90;;;;;;5012387;28;20042;-75
2023/09/16 09:40:21;;;;;;;3.72;2.17;;;24.50;99.90;;;;;;4997496;28;20034;-74
2023/09/16 09:42:50;;;;;;;3.25;1.92;;;24.60;99.90;;;;;;5014166;28;20028;-73
2023/09/16 09:45:18;;;;;;;4.55;2.22;;;24.60;99.90;;;;;;4979475;28;20032;-73
2023/09/16 09:47:47;;;;;;;4.55;2.25;;;24.70;99.90;;;;;;5016311;28;20044;-72
2023/09/16 09:50:15;;;;;;;4.97;2.90;;;24.80;99.90;;;;;;5013550;28;20026;-74
2023/09/16 09:52:52;;;;;;;2.40;1.52;;;24.90;99.90;;;;;;4998793;28;20500;-73
2023/09/16 09:55:21;;;;;;;3.63;2.72;;;24.90;99.90;;;;;;5014273;28;20041;-72
2023/09/16 09:57:50;;;;;;;2.92;1.77;;;25.10;99.90;;;;;;5014057;28;20029;-74
2023/09/16 10:00:21;;;;;;;6.90;2.97;;;25.10;99.90;;;;;;4996657;28;20041;-73
2023/09/16 10:02:49;;;;;;;2.85;1.73;;;25.10;99.90;;;;;;5015086;28;20037;-73
2023/09/16 10:05:21;;;;;;;2.05;1.50;;;25.20;99.90;;;;;;4996555;28;20029;-72
2023/09/16 10:07:49;;;;;;;2.40;1.92;;;25.40;99.90;;;;;;4997679;28;20056;-73
2023/09/16 10:10:21;;;;;;;2.88;1.60;;;25.60;99.90;;;;;;5012564;28;20041;-73
2023/09/16 10:12:51;;;;;;;;;;;25.90;99.90;;;;;;4979672;28;20033;-74
2023/09/16 10:15:32;;;;;;;3.42;1.98;;;26.20;99.90;;;;;;5012454;28;19929;-74
2023/09/16 10:17:59;;;;;;;4.57;1.27;;;26.50;99.90;;;;;;5012350;28;20411;-72
2023/09/16 10:20:29;;;;;;;2.78;1.45;;;26.70;99.90;;;;;;4968780;28;20504;-72
2023/09/16 10:22:57;;;;;;;2.38;1.40;;;27.00;99.90;;;;;;4997525;28;20397;-72
2023/09/16 10:25:28;;;;;;;2.35;1.33;;;27.30;99.90;;;;;;4977887;28;20221;-74
2023/09/16 10:28:03;;;;;;;2.67;1.30;;;27.60;99.70;;;;;;4992420;28;20242;-74
2023/09/16 10:30:31;;;;;;;2.67;1.50;;;28.00;98.80;;;;;;5010807;28;20392;-73
2023/09/16 10:33:00;;;;;;;2.15;1.05;;;28.30;97.90;;;;;;4997477;28;20048;-75
2023/09/16 10:35:32;;;;;;;1.70;1.00;;;28.70;98.00;;;;;;5014316;28;20048;-73
2023/09/16 10:38:02;;;;;;;3.22;1.50;;;29.10;97.70;;;;;;5002470;28;20539;-74
2023/09/16 10:40:30;;;;;;;2.63;1.52;;;29.40;97.00;;;;;;5014460;28;20030;-74
2023/09/16 10:42:58;;;;;;;2.47;1.30;;;29.70;96.10;;;;;;4986466;28;20037;-72
2023/09/16 10:45:25;;;;;;;2.65;1.05;;;30.00;94.70;;;;;;5015402;28;20416;-73
2023/09/16 10:47:53;;;;;;;1.30;0.90;;;30.10;93.50;;;;;;5017901;28;20029;-73
2023/09/16 10:50:30;;;;;;;1.67;0.80;;;30.40;93.30;;;;;;5000379;28;20043;-73
2023/09/16 10:53:14;;;;;;;2.15;1.00;;;30.70;92.50;;;;;;5014491;28;20033;-72
2023/09/16 10:55:56;;;;;;;2.15;0.90;;;30.80;90.70;;;;;;4999041;28;20045;-72
2023/09/16 10:58:41;;;;;;;;;;;30.90;90.40;;;;;;5011622;28;20389;-73
2023/09/16 11:01:10;;;;;;;2.50;0.98;;;31.20;90.20;;;;;;5016479;28;19913;-72
2023/09/16 11:03:41;;;;;;;1.80;1.13;;;31.50;88.70;;;;;;5000255;28;20049;-77
2023/09/16 11:06:08;;;;;;;1.30;0.70;;;31.70;86.80;;;;;;5016849;28;20033;-75
2023/09/16 11:08:34;;;;;;;5.88;3.75;;;31.90;85.80;;;;;;5017105;28;20477;-77
2023/09/16 11:11:01;;;;;;;2.88;2.17;;;32.20;84.40;;;;;;4998024;28;20044;-78
2023/09/16 11:13:29;;;;;;;2.55;2.35;;;32.50;83.30;;;;;;5016005;28;20037;-76
2023/09/16 11:15:59;;;;;;;2.20;0.95;;;32.80;80.70;;;;;;5011237;28;20041;-76
2023/09/16 11:18:26;;;;;;;2.72;1.58;;;32.70;76.70;;;;;;5014304;28;20037;-77
2023/09/16 11:20:54;;;;;;;2.03;1.10;;;32.40;75.60;;;;;;5015999;28;20041;-72
2023/09/16 11:23:21;;;;;;;1.83;1.20;;;32.20;74.30;;;;;;5014002;28;20484;-73
2023/09/16 11:25:48;;;;;;;2.22;1.10;;;32.30;74.80;;;;;;5013373;28;20029;-72
2023/09/16 11:28:18;;;;;;;3.72;0.88;;;32.40;74.30;;;;;;5013506;28;20033;-71
2023/09/16 11:30:58;;;;;;;2.83;0.98;;;32.40;73.50;;;;;;4980983;28;20037;-72
2023/09/16 11:33:27;;;;;;;1.35;0.80;;;32.50;73.40;;;;;;5015133;28;20064;-73
2023/09/16 11:36:08;;;;;;;1.45;0.70;;;32.70;73.70;;;;;;4994118;28;20033;-71
2023/09/16 11:38:36;;;;;;;1.50;0.80;;;33.10;73.30;;;;;;4997240;28;20037;-73
2023/09/16 11:41:10;;;;;;;1.95;1.00;;;33.10;72.20;;;;;;5000109;28;20022;-72
2023/09/16 11:43:38;;;;;;;1.52;0.73;;;33.20;71.90;;;;;;5015633;28;20033;-73
2023/09/16 11:46:06;;;;;;;1.30;1.00;;;33.60;72.40;;;;;;5016599;28;20030;-72
2023/09/16 11:48:48;;;;;;;2.55;1.40;;;34.00;72.30;;;;;;4999897;28;20033;-73
2023/09/16 11:51:16;;;;;;;2.60;1.27;;;34.40;70.80;;;;;;4998198;28;20045;-72
2023/09/16 11:53:44;;;;;;;2.53;1.20;;;34.20;69.60;;;;;;4967560;28;20056;-72
2023/09/16 11:56:10;;;;;;;2.38;1.50;;;34.30;69.70;;;;;;4999178;28;20472;-73
2023/09/16 11:58:39;;;;;;;1.63;1.10;;;34.40;68.90;;;;;;5018042;28;20021;-73
2023/09/16 12:01:06;;;;;;;1.83;0.95;;;34.50;69.00;;;;;;5014815;28;20037;-72
2023/09/16 12:03:34;;;;;;;1.38;0.90;;;34.70;69.20;;;;;;5014908;28;20033;-73
2023/09/16 12:06:01;;;;;;;1.45;0.90;;;34.70;69.20;;;;;;4997423;28;20037;-72
2023/09/16 12:08:28;;;;;;;2.55;0.80;;;34.70;69.50;;;;;;5016123;28;20108;-72
2023/09/16 12:10:55;;;;;;;1.48;1.00;;;34.80;69.40;;;;;;5013942;28;20064;-77
2023/09/16 12:13:31;;;;;;;1.58;1.20;;;35.00;69.30;;;;;;5000471;28;20507;-76
2023/09/16 12:15:59;;;;;;;3.97;1.98;;;35.40;68.20;;;;;;5014790;28;20037;-76
2023/09/16 12:18:25;;;;;;;5.35;4.85;;;35.50;67.10;;;;;;5014857;28;20486;-77
2023/09/16 12:20:55;;;;;;;3.72;2.03;;;35.60;66.60;;;;;;5002778;28;20496;-76
2023/09/16 12:23:25;;;;;;;2.67;1.60;;;35.80;66.30;;;;;;4994073;28;20522;-77
2023/09/16 12:25:51;;;;;;;2.10;1.08;;;35.90;65.80;;;;;;5014737;28;20480;-77
2023/09/16 12:28:22;;;;;;;3.50;1.10;;;35.90;65.10;;;;;;5014592;28;20503;-77
2023/09/16 12:30:51;;;;;;;2.35;1.08;;;36.10;64.60;;;;;;5014525;28;20498;-76
2023/09/16 12:33:19;;;;;;;2.20;1.10;;;36.40;64.70;;;;;;4998721;28;20055;-73
2023/09/16 12:35:48;;;;;;;2.47;0.80;;;36.80;64.30;;;;;;5013435;28;20044;-73
2023/09/16 12:38:15;;;;;;;1.77;0.90;;;37.10;62.90;;;;;;4995555;28;20033;-73
2023/09/16 12:40:42;;;;;;;2.28;1.30;;;37.30;62.50;;;;;;5014774;28;20629;-73
2023/09/16 12:43:09;;;;;;;1.70;1.10;;;37.20;61.10;;;;;;5014021;28;20507;-73
2023/09/16 12:45:36;;;;;;;1.17;0.80;;;36.90;61.10;;;;;;5032794;28;20025;-73
2023/09/16 12:48:04;;;;;;;1.75;0.90;;;36.80;61.30;;;;;;5000184;28;20519;-74
2023/09/16 12:50:31;;;;;;;1.50;0.80;;;37.00;61.10;;;;;;5015755;28;20037;-73
2023/09/16 12:52:58;;;;;;;1.60;1.00;;;37.20;60.70;;;;;;5015272;28;20037;-73